sensor_id;sensor_type;location;lat;lon;timestamp;pressure;altitude;pressure_sealevel;temperature;humidity
51053;BME280;37093;37.716;-122.060;2023-05-14T00:01:15;99255.43;;;32.57;23.27
51053;BME280;37093;37.716;-122.060;2023-05-14T00:03:44;99249.81;;;32.60;23.66
51053;BME280;37093;37.716;-122.060;2023-05-14T00:06:12;99252.46;;;32.44;23.49
51053;BME280;37093;37.716;-122.060;2023-05-14T00:08:40;99248.36;;;32.13;23.97
51053;BME280;37093;37.716;-122.060;2023-05-14T00:11:08;99249.17;;;32.13;23.38
51053;BME280;37093;37.716;-122.060;2023-05-14T00:13:37;99245.23;;;32.46;23.50
51053;BME280;37093;37.716;-122.060;2023-05-14T00:16:05;99239.05;;;31.87;23.71
51053;BME280;37093;37.716;-122.060;2023-05-14T00:18:34;99233.92;;;31.40;23.99
51053;BME280;37093;37.716;-122.060;2023-05-14T00:21:02;99234.04;;;31.45;24.43
51053;BME280;37093;37.716;-122.060;2023-05-14T00:23:31;99231.03;;;32.02;23.80
51053;BME280;37093;37.716;-122.060;2023-05-14T00:25:59;99233.62;;;31.23;23.67
51053;BME280;37093;37.716;-122.060;2023-05-14T00:28:28;99233.26;;;32.00;23.42
51053;BME280;37093;37.716;-122.060;2023-05-14T00:30:56;99234.74;;;31.30;23.60
51053;BME280;37093;37.716;-122.060;2023-05-14T00:33:24;99234.13;;;31.51;23.12
51053;BME280;37093;37.716;-122.060;2023-05-14T00:35:53;99237.96;;;31.43;23.17
51053;BME280;37093;37.716;-122.060;2023-05-14T00:38:21;99235.37;;;31.54;22.87
51053;BME280;37093;37.716;-122.060;2023-05-14T00:40:50;99236.23;;;31.36;23.88
51053;BME280;37093;37.716;-122.060;2023-05-14T00:43:19;99232.63;;;31.15;23.83
51053;BME280;37093;37.716;-122.060;2023-05-14T00:45:50;99233.26;;;31.15;23.36
51053;BME280;37093;37.716;-122.060;2023-05-14T00:48:19;99231.59;;;30.96;23.32
51053;BME280;37093;37.716;-122.060;2023-05-14T00:50:49;99233.97;;;31.43;22.62
51053;BME280;37093;37.716;-122.060;2023-05-14T00:53:18;99235.13;;;31.15;22.56
51053;BME280;37093;37.716;-122.060;2023-05-14T00:55:49;99228.93;;;30.91;23.82
51053;BME280;37093;37.716;-122.060;2023-05-14T00:58:17;99233.48;;;30.86;23.58
51053;BME280;37093;37.716;-122.060;2023-05-14T01:00:46;99233.62;;;31.00;23.42
51053;BME280;37093;37.716;-122.060;2023-05-14T01:03:15;99232.94;;;30.73;23.53
51053;BME280;37093;37.716;-122.060;2023-05-14T01:05:55;99226.70;;;30.92;23.13
51053;BME280;37093;37.716;-122.060;2023-05-14T01:08:34;99226.94;;;30.75;23.43
51053;BME280;37093;37.716;-122.060;2023-05-14T01:11:08;99226.09;;;30.39;23.86
51053;BME280;37093;37.716;-122.060;2023-05-14T01:13:45;99230.89;;;30.35;23.44
51053;BME280;37093;37.716;-122.060;2023-05-14T01:16:18;99232.41;;;30.19;23.36
51053;BME280;37093;37.716;-122.060;2023-05-14T01:18:49;99230.25;;;29.99;23.86
51053;BME280;37093;37.716;-122.060;2023-05-14T01:21:49;99233.04;;;29.38;24.47
51053;BME280;37093;37.716;-122.060;2023-05-14T01:24:17;99232.51;;;29.87;24.16
51053;BME280;37093;37.716;-122.060;2023-05-14T01:26:46;99235.41;;;29.97;23.90
51053;BME280;37093;37.716;-122.060;2023-05-14T01:29:20;99233.60;;;29.69;23.36
51053;BME280;37093;37.716;-122.060;2023-05-14T01:31:50;99233.20;;;29.49;23.84
51053;BME280;37093;37.716;-122.060;2023-05-14T01:34:22;99232.92;;;29.46;23.91
51053;BME280;37093;37.716;-122.060;2023-05-14T01:36:52;99234.69;;;29.84;22.98
51053;BME280;37093;37.716;-122.060;2023-05-14T01:39:22;99230.23;;;29.92;22.23
51053;BME280;37093;37.716;-122.060;2023-05-14T01:41:51;99233.01;;;29.72;22.71
51053;BME280;37093;37.716;-122.060;2023-05-14T01:44:21;99229.72;;;29.29;23.26
51053;BME280;37093;37.716;-122.060;2023-05-14T01:46:49;99228.04;;;29.61;23.10
51053;BME280;37093;37.716;-122.060;2023-05-14T01:49:18;99227.07;;;30.34;23.01
51053;BME280;37093;37.716;-122.060;2023-05-14T01:51:46;99228.61;;;30.00;22.70
51053;BME280;37093;37.716;-122.060;2023-05-14T01:54:14;99229.12;;;30.17;22.55
51053;BME280;37093;37.716;-122.060;2023-05-14T01:56:43;99228.30;;;29.55;23.40
51053;BME280;37093;37.716;-122.060;2023-05-14T01:59:12;99225.51;;;29.70;23.19
51053;BME280;37093;37.716;-122.060;2023-05-14T02:01:40;99227.75;;;29.41;23.10
51053;BME280;37093;37.716;-122.060;2023-05-14T02:04:08;99228.86;;;29.29;23.14
51053;BME280;37093;37.716;-122.060;2023-05-14T02:06:37;99231.23;;;29.24;23.39
51053;BME280;37093;37.716;-122.060;2023-05-14T02:09:05;99229.51;;;29.48;23.05
51053;BME280;37093;37.716;-122.060;2023-05-14T02:11:34;99229.44;;;29.65;23.14
51053;BME280;37093;37.716;-122.060;2023-05-14T02:14:02;99229.84;;;29.63;23.54
51053;BME280;37093;37.716;-122.060;2023-05-14T02:16:31;99227.95;;;29.78;23.96
51053;BME280;37093;37.716;-122.060;2023-05-14T02:18:59;99227.68;;;30.16;23.09
51053;BME280;37093;37.716;-122.060;2023-05-14T02:21:28;99228.81;;;30.29;22.70
51053;BME280;37093;37.716;-122.060;2023-05-14T02:23:56;99228.29;;;30.28;23.00
51053;BME280;37093;37.716;-122.060;2023-05-14T02:26:25;99231.65;;;30.26;22.95
51053;BME280;37093;37.716;-122.060;2023-05-14T02:28:53;99230.35;;;30.22;22.82
51053;BME280;37093;37.716;-122.060;2023-05-14T02:31:22;99230.12;;;30.29;22.96
51053;BME280;37093;37.716;-122.060;2023-05-14T02:33:51;99230.77;;;30.04;23.42
51053;BME280;37093;37.716;-122.060;2023-05-14T02:36:19;99228.51;;;30.12;23.66
51053;BME280;37093;37.716;-122.060;2023-05-14T02:38:48;99231.46;;;30.39;22.80
51053;BME280;37093;37.716;-122.060;2023-05-14T02:41:16;99230.02;;;30.36;23.48
51053;BME280;37093;37.716;-122.060;2023-05-14T02:43:45;99232.54;;;30.27;23.47
51053;BME280;37093;37.716;-122.060;2023-05-14T02:46:13;99232.85;;;30.05;23.43
51053;BME280;37093;37.716;-122.060;2023-05-14T02:48:42;99232.06;;;29.84;23.78
51053;BME280;37093;37.716;-122.060;2023-05-14T02:51:10;99232.90;;;30.15;23.72
51053;BME280;37093;37.716;-122.060;2023-05-14T02:53:39;99229.87;;;29.92;23.40
51053;BME280;37093;37.716;-122.060;2023-05-14T02:56:07;99233.80;;;29.87;23.78
51053;BME280;37093;37.716;-122.060;2023-05-14T02:58:36;99231.72;;;30.15;23.88
51053;BME280;37093;37.716;-122.060;2023-05-14T03:01:04;99229.61;;;30.08;24.08
51053;BME280;37093;37.716;-122.060;2023-05-14T03:03:33;99224.12;;;30.03;23.83
51053;BME280;37093;37.716;-122.060;2023-05-14T03:06:01;99222.54;;;29.93;23.56
51053;BME280;37093;37.716;-122.060;2023-05-14T03:08:30;99218.99;;;29.66;23.99
51053;BME280;37093;37.716;-122.060;2023-05-14T03:10:58;99219.90;;;29.82;23.76
51053;BME280;37093;37.716;-122.060;2023-05-14T03:13:27;99219.38;;;29.50;24.16
51053;BME280;37093;37.716;-122.060;2023-05-14T03:15:56;99221.12;;;29.41;23.95
51053;BME280;37093;37.716;-122.060;2023-05-14T03:18:24;99220.06;;;29.62;24.35
51053;BME280;37093;37.716;-122.060;2023-05-14T03:20:52;99224.73;;;29.52;24.18
51053;BME280;37093;37.716;-122.060;2023-05-14T03:23:21;99227.37;;;29.69;24.04
51053;BME280;37093;37.716;-122.060;2023-05-14T03:25:49;99228.79;;;29.55;24.08
51053;BME280;37093;37.716;-122.060;2023-05-14T03:28:18;99230.01;;;29.22;24.79
51053;BME280;37093;37.716;-122.060;2023-05-14T03:30:46;99228.64;;;29.15;24.59
51053;BME280;37093;37.716;-122.060;2023-05-14T03:33:15;99226.62;;;29.54;24.38
51053;BME280;37093;37.716;-122.060;2023-05-14T03:35:43;99231.97;;;29.39;24.70
51053;BME280;37093;37.716;-122.060;2023-05-14T03:38:12;99233.42;;;29.32;24.84
51053;BME280;37093;37.716;-122.060;2023-05-14T03:40:40;99234.54;;;29.16;24.69
51053;BME280;37093;37.716;-122.060;2023-05-14T03:43:09;99237.18;;;29.10;24.78
51053;BME280;37093;37.716;-122.060;2023-05-14T03:45:38;99236.47;;;28.93;25.27
51053;BME280;37093;37.716;-122.060;2023-05-14T03:48:07;99236.50;;;28.84;25.11
51053;BME280;37093;37.716;-122.060;2023-05-14T03:50:35;99236.54;;;28.71;25.43
51053;BME280;37093;37.716;-122.060;2023-05-14T03:53:04;99235.45;;;28.67;25.39
51053;BME280;37093;37.716;-122.060;2023-05-14T03:55:32;99236.88;;;28.78;25.50
51053;BME280;37093;37.716;-122.060;2023-05-14T03:58:01;99235.79;;;28.48;25.60
51053;BME280;37093;37.716;-122.060;2023-05-14T04:00:30;99238.27;;;28.32;25.50
51053;BME280;37093;37.716;-122.060;2023-05-14T04:02:58;99237.16;;;28.67;25.74
51053;BME280;37093;37.716;-122.060;2023-05-14T04:05:26;99238.79;;;28.01;26.18
51053;BME280;37093;37.716;-122.060;2023-05-14T04:07:55;99243.54;;;27.95;26.33
51053;BME280;37093;37.716;-122.060;2023-05-14T04:10:23;99244.88;;;27.82;26.22
51053;BME280;37093;37.716;-122.060;2023-05-14T04:12:52;99246.92;;;28.01;26.48
51053;BME280;37093;37.716;-122.060;2023-05-14T04:15:20;99251.98;;;27.96;26.63
51053;BME280;37093;37.716;-122.060;2023-05-14T04:17:49;99252.07;;;27.93;27.36
51053;BME280;37093;37.716;-122.060;2023-05-14T04:20:17;99250.20;;;27.76;27.33
51053;BME280;37093;37.716;-122.060;2023-05-14T04:22:46;99250.02;;;27.63;27.40
51053;BME280;37093;37.716;-122.060;2023-05-14T04:25:14;99247.73;;;27.41;28.03
51053;BME280;37093;37.716;-122.060;2023-05-14T04:27:43;99247.08;;;27.23;28.08
51053;BME280;37093;37.716;-122.060;2023-05-14T04:30:11;99243.71;;;27.18;28.03
51053;BME280;37093;37.716;-122.060;2023-05-14T04:32:39;99242.11;;;27.44;28.33
51053;BME280;37093;37.716;-122.060;2023-05-14T04:35:08;99243.05;;;26.86;28.45
51053;BME280;37093;37.716;-122.060;2023-05-14T04:37:36;99243.57;;;27.02;28.64
51053;BME280;37093;37.716;-122.060;2023-05-14T04:40:07;99246.77;;;26.85;28.80
51053;BME280;37093;37.716;-122.060;2023-05-14T04:42:36;99245.08;;;26.99;29.05
51053;BME280;37093;37.716;-122.060;2023-05-14T04:45:06;99243.95;;;26.80;29.23
51053;BME280;37093;37.716;-122.060;2023-05-14T04:47:34;99246.55;;;26.68;29.53
51053;BME280;37093;37.716;-122.060;2023-05-14T04:50:02;99244.97;;;26.76;29.72
51053;BME280;37093;37.716;-122.060;2023-05-14T04:52:31;99244.83;;;26.53;29.84
51053;BME280;37093;37.716;-122.060;2023-05-14T04:54:59;99243.23;;;26.63;30.11
51053;BME280;37093;37.716;-122.060;2023-05-14T04:57:28;99242.83;;;26.29;30.23
51053;BME280;37093;37.716;-122.060;2023-05-14T04:59:56;99243.46;;;26.53;30.29
51053;BME280;37093;37.716;-122.060;2023-05-14T05:02:25;99244.14;;;26.48;30.19
51053;BME280;37093;37.716;-122.060;2023-05-14T05:04:53;99245.76;;;26.49;30.33
51053;BME280;37093;37.716;-122.060;2023-05-14T05:07:22;99247.03;;;26.41;30.63
51053;BME280;37093;37.716;-122.060;2023-05-14T05:09:50;99248.41;;;26.33;30.86
51053;BME280;37093;37.716;-122.060;2023-05-14T05:12:19;99248.55;;;26.28;31.03
51053;BME280;37093;37.716;-122.060;2023-05-14T05:14:47;99248.61;;;26.24;31.06
51053;BME280;37093;37.716;-122.060;2023-05-14T05:17:16;99247.22;;;25.93;31.27
51053;BME280;37093;37.716;-122.060;2023-05-14T05:19:44;99244.48;;;26.10;31.19
51053;BME280;37093;37.716;-122.060;2023-05-14T05:22:12;99242.80;;;26.27;31.36
51053;BME280;37093;37.716;-122.060;2023-05-14T05:24:41;99240.10;;;26.03;31.18
51053;BME280;37093;37.716;-122.060;2023-05-14T05:27:09;99237.82;;;26.03;31.36
51053;BME280;37093;37.716;-122.060;2023-05-14T05:29:38;99240.20;;;26.48;31.14
51053;BME280;37093;37.716;-122.060;2023-05-14T05:32:07;99247.51;;;25.94;31.60
51053;BME280;37093;37.716;-122.060;2023-05-14T05:34:35;99249.91;;;25.61;32.65
51053;BME280;37093;37.716;-122.060;2023-05-14T05:37:04;99250.18;;;25.44;32.55
51053;BME280;37093;37.716;-122.060;2023-05-14T05:39:32;99247.70;;;25.75;32.18
51053;BME280;37093;37.716;-122.060;2023-05-14T05:42:01;99248.92;;;25.73;32.12
51053;BME280;37093;37.716;-122.060;2023-05-14T05:44:29;99251.12;;;25.23;32.04
51053;BME280;37093;37.716;-122.060;2023-05-14T05:46:58;99252.89;;;25.43;32.04
51053;BME280;37093;37.716;-122.060;2023-05-14T05:49:27;99249.24;;;25.46;31.91
51053;BME280;37093;37.716;-122.060;2023-05-14T05:51:56;99245.26;;;25.26;31.92
51053;BME280;37093;37.716;-122.060;2023-05-14T05:54:24;99242.46;;;25.47;31.93
51053;BME280;37093;37.716;-122.060;2023-05-14T05:56:52;99241.94;;;25.70;31.97
51053;BME280;37093;37.716;-122.060;2023-05-14T05:59:20;99244.10;;;25.31;31.97
51053;BME280;37093;37.716;-122.060;2023-05-14T06:01:48;99244.37;;;25.58;32.11
51053;BME280;37093;37.716;-122.060;2023-05-14T06:04:18;99241.35;;;25.53;32.14
51053;BME280;37093;37.716;-122.060;2023-05-14T06:06:46;99236.76;;;25.22;32.26
51053;BME280;37093;37.716;-122.060;2023-05-14T06:09:14;99235.21;;;25.18;32.37
51053;BME280;37093;37.716;-122.060;2023-05-14T06:11:42;99233.70;;;25.44;32.61
51053;BME280;37093;37.716;-122.060;2023-05-14T06:14:11;99234.35;;;25.09;32.62
51053;BME280;37093;37.716;-122.060;2023-05-14T06:16:39;99228.95;;;24.97;32.96
51053;BME280;37093;37.716;-122.060;2023-05-14T06:19:08;99227.77;;;25.20;33.06
51053;BME280;37093;37.716;-122.060;2023-05-14T06:21:36;99223.79;;;25.17;33.09
51053;BME280;37093;37.716;-122.060;2023-05-14T06:24:05;99222.06;;;25.08;33.27
51053;BME280;37093;37.716;-122.060;2023-05-14T06:26:33;99222.42;;;24.99;33.69
51053;BME280;37093;37.716;-122.060;2023-05-14T06:29:02;99217.44;;;25.13;33.82
51053;BME280;37093;37.716;-122.060;2023-05-14T06:31:30;99214.78;;;25.07;33.74
51053;BME280;37093;37.716;-122.060;2023-05-14T06:33:59;99218.41;;;24.83;33.67
51053;BME280;37093;37.716;-122.060;2023-05-14T06:36:27;99219.18;;;24.80;33.66
51053;BME280;37093;37.716;-122.060;2023-05-14T06:38:56;99219.94;;;24.75;33.66
51053;BME280;37093;37.716;-122.060;2023-05-14T06:41:24;99220.54;;;24.62;34.07
51053;BME280;37093;37.716;-122.060;2023-05-14T06:43:53;99223.55;;;24.51;34.10
51053;BME280;37093;37.716;-122.060;2023-05-14T06:46:21;99222.09;;;24.67;34.26
51053;BME280;37093;37.716;-122.060;2023-05-14T06:48:50;99220.68;;;24.62;34.44
51053;BME280;37093;37.716;-122.060;2023-05-14T06:51:19;99215.69;;;24.53;34.48
51053;BME280;37093;37.716;-122.060;2023-05-14T06:53:47;99212.66;;;24.42;34.87
51053;BME280;37093;37.716;-122.060;2023-05-14T06:56:16;99214.59;;;24.54;34.80
51053;BME280;37093;37.716;-122.060;2023-05-14T06:58:44;99211.37;;;24.18;35.27
51053;BME280;37093;37.716;-122.060;2023-05-14T07:01:13;99209.55;;;23.53;34.96
51053;BME280;37093;37.716;-122.060;2023-05-14T07:03:42;99204.77;;;23.46;33.98
51053;BME280;37093;37.716;-122.060;2023-05-14T07:06:10;99197.68;;;24.82;32.79
51053;BME280;37093;37.716;-122.060;2023-05-14T07:08:38;99198.72;;;25.07;33.28
51053;BME280;37093;37.716;-122.060;2023-05-14T07:11:07;99197.84;;;24.68;34.25
51053;BME280;37093;37.716;-122.060;2023-05-14T07:13:35;99197.32;;;24.70;34.51
51053;BME280;37093;37.716;-122.060;2023-05-14T07:16:04;99194.63;;;24.34;34.69
51053;BME280;37093;37.716;-122.060;2023-05-14T07:18:32;99193.76;;;23.56;36.61
51053;BME280;37093;37.716;-122.060;2023-05-14T07:21:01;99193.04;;;23.89;35.84
51053;BME280;37093;37.716;-122.060;2023-05-14T07:23:29;99192.64;;;23.14;36.93
51053;BME280;37093;37.716;-122.060;2023-05-14T07:25:58;99192.64;;;23.55;36.91
51053;BME280;37093;37.716;-122.060;2023-05-14T07:28:26;99187.06;;;23.45;36.58
51053;BME280;37093;37.716;-122.060;2023-05-14T07:30:55;99185.86;;;23.82;36.04
51053;BME280;37093;37.716;-122.060;2023-05-14T07:33:24;99184.75;;;23.35;35.94
51053;BME280;37093;37.716;-122.060;2023-05-14T07:35:53;99186.37;;;23.67;35.61
51053;BME280;37093;37.716;-122.060;2023-05-14T07:38:21;99183.75;;;23.59;35.86
51053;BME280;37093;37.716;-122.060;2023-05-14T07:40:50;99185.23;;;23.28;36.27
51053;BME280;37093;37.716;-122.060;2023-05-14T07:43:18;99181.75;;;23.86;35.38
51053;BME280;37093;37.716;-122.060;2023-05-14T07:45:47;99179.68;;;23.62;35.11
51053;BME280;37093;37.716;-122.060;2023-05-14T07:48:15;99180.27;;;23.37;34.99
51053;BME280;37093;37.716;-122.060;2023-05-14T07:50:44;99178.36;;;23.39;35.05
51053;BME280;37093;37.716;-122.060;2023-05-14T07:53:12;99179.25;;;23.44;34.71
51053;BME280;37093;37.716;-122.060;2023-05-14T07:55:40;99175.83;;;23.35;34.95
51053;BME280;37093;37.716;-122.060;2023-05-14T07:58:09;99174.97;;;23.62;34.91
51053;BME280;37093;37.716;-122.060;2023-05-14T08:00:37;99169.87;;;23.56;34.69
51053;BME280;37093;37.716;-122.060;2023-05-14T08:03:06;99168.30;;;23.58;34.77
51053;BME280;37093;37.716;-122.060;2023-05-14T08:05:35;99163.26;;;23.47;34.93
51053;BME280;37093;37.716;-122.060;2023-05-14T08:08:03;99158.73;;;23.67;35.02
51053;BME280;37093;37.716;-122.060;2023-05-14T08:10:31;99160.73;;;23.12;34.86
51053;BME280;37093;37.716;-122.060;2023-05-14T08:13:00;99162.31;;;23.59;35.20
51053;BME280;37093;37.716;-122.060;2023-05-14T08:15:28;99163.96;;;23.04;35.04
51053;BME280;37093;37.716;-122.060;2023-05-14T08:17:57;99160.56;;;23.52;35.08
51053;BME280;37093;37.716;-122.060;2023-05-14T08:20:25;99155.19;;;22.95;35.28
51053;BME280;37093;37.716;-122.060;2023-05-14T08:22:54;99152.59;;;23.22;35.24
51053;BME280;37093;37.716;-122.060;2023-05-14T08:25:23;99149.92;;;23.14;35.38
51053;BME280;37093;37.716;-122.060;2023-05-14T08:27:51;99146.29;;;23.34;35.39
51053;BME280;37093;37.716;-122.060;2023-05-14T08:30:19;99140.59;;;22.77;35.14
51053;BME280;37093;37.716;-122.060;2023-05-14T08:32:48;99141.26;;;23.25;35.36
51053;BME280;37093;37.716;-122.060;2023-05-14T08:35:17;99136.84;;;22.96;35.23
51053;BME280;37093;37.716;-122.060;2023-05-14T08:37:45;99133.98;;;23.18;35.28
51053;BME280;37093;37.716;-122.060;2023-05-14T08:40:14;99129.01;;;22.84;35.45
51053;BME280;37093;37.716;-122.060;2023-05-14T08:42:43;99125.55;;;23.02;35.48
51053;BME280;37093;37.716;-122.060;2023-05-14T08:45:17;99126.43;;;22.66;35.86
51053;BME280;37093;37.716;-122.060;2023-05-14T08:47:48;99124.97;;;23.21;35.68
51053;BME280;37093;37.716;-122.060;2023-05-14T08:50:17;99121.50;;;22.86;35.79
51053;BME280;37093;37.716;-122.060;2023-05-14T08:52:46;99118.24;;;22.84;36.02
51053;BME280;37093;37.716;-122.060;2023-05-14T08:55:15;99116.26;;;22.73;36.14
51053;BME280;37093;37.716;-122.060;2023-05-14T08:57:43;99113.55;;;22.73;35.95
51053;BME280;37093;37.716;-122.060;2023-05-14T09:00:13;99112.02;;;22.41;35.90
51053;BME280;37093;37.716;-122.060;2023-05-14T09:02:42;99111.35;;;22.87;35.86
51053;BME280;37093;37.716;-122.060;2023-05-14T09:05:11;99107.19;;;22.54;36.03
51053;BME280;37093;37.716;-122.060;2023-05-14T09:07:40;99105.82;;;22.58;35.87
51053;BME280;37093;37.716;-122.060;2023-05-14T09:10:09;99103.38;;;22.51;35.71
51053;BME280;37093;37.716;-122.060;2023-05-14T09:12:38;99101.39;;;22.54;35.58
51053;BME280;37093;37.716;-122.060;2023-05-14T09:15:07;99103.65;;;22.26;35.68
51053;BME280;37093;37.716;-122.060;2023-05-14T09:17:35;99105.30;;;22.49;35.62
51053;BME280;37093;37.716;-122.060;2023-05-14T09:20:04;99107.61;;;22.43;35.65
51053;BME280;37093;37.716;-122.060;2023-05-14T09:22:34;99107.23;;;22.44;35.43
51053;BME280;37093;37.716;-122.060;2023-05-14T09:25:04;99109.18;;;22.35;35.68
51053;BME280;37093;37.716;-122.060;2023-05-14T09:27:33;99104.94;;;22.37;35.26
51053;BME280;37093;37.716;-122.060;2023-05-14T09:30:05;99105.17;;;22.29;35.22
51053;BME280;37093;37.716;-122.060;2023-05-14T09:32:38;99103.58;;;22.33;35.45
51053;BME280;37093;37.716;-122.060;2023-05-14T09:35:12;99104.51;;;22.17;35.86
51053;BME280;37093;37.716;-122.060;2023-05-14T09:37:42;99100.35;;;22.14;35.47
51053;BME280;37093;37.716;-122.060;2023-05-14T09:40:12;99099.99;;;22.04;35.48
51053;BME280;37093;37.716;-122.060;2023-05-14T09:42:41;99095.72;;;22.51;35.36
51053;BME280;37093;37.716;-122.060;2023-05-14T09:45:10;99095.64;;;22.22;35.42
51053;BME280;37093;37.716;-122.060;2023-05-14T09:47:39;99094.75;;;22.44;35.85
51053;BME280;37093;37.716;-122.060;2023-05-14T09:50:07;99092.42;;;21.90;35.56
51053;BME280;37093;37.716;-122.060;2023-05-14T09:52:37;99088.80;;;22.17;35.47
51053;BME280;37093;37.716;-122.060;2023-05-14T09:55:07;99084.35;;;22.09;35.53
51053;BME280;37093;37.716;-122.060;2023-05-14T09:57:36;99085.99;;;22.32;35.53
51053;BME280;37093;37.716;-122.060;2023-05-14T10:00:05;99084.59;;;22.23;35.65
51053;BME280;37093;37.716;-122.060;2023-05-14T10:02:36;99081.72;;;22.19;35.47
51053;BME280;37093;37.716;-122.060;2023-05-14T10:05:06;99078.76;;;21.92;35.52
51053;BME280;37093;37.716;-122.060;2023-05-14T10:07:40;99077.21;;;22.13;35.53
51053;BME280;37093;37.716;-122.060;2023-05-14T10:10:14;99079.17;;;22.05;35.53
51053;BME280;37093;37.716;-122.060;2023-05-14T10:12:45;99080.58;;;22.01;35.60
51053;BME280;37093;37.716;-122.060;2023-05-14T10:15:20;99081.99;;;21.96;35.66
51053;BME280;37093;37.716;-122.060;2023-05-14T10:17:55;99086.14;;;22.02;36.25
51053;BME280;37093;37.716;-122.060;2023-05-14T10:20:24;99088.76;;;21.74;36.78
51053;BME280;37093;37.716;-122.060;2023-05-14T10:22:54;99092.58;;;21.74;36.40
51053;BME280;37093;37.716;-122.060;2023-05-14T10:25:22;99094.30;;;21.91;36.26
51053;BME280;37093;37.716;-122.060;2023-05-14T10:27:51;99094.49;;;21.92;36.22
51053;BME280;37093;37.716;-122.060;2023-05-14T10:30:21;99097.65;;;22.09;36.50
51053;BME280;37093;37.716;-122.060;2023-05-14T10:32:49;99097.32;;;21.85;36.71
51053;BME280;37093;37.716;-122.060;2023-05-14T10:35:51;99098.10;;;21.78;36.31
51053;BME280;37093;37.716;-122.060;2023-05-14T10:38:25;99096.55;;;21.79;36.24
51053;BME280;37093;37.716;-122.060;2023-05-14T10:40:56;99096.09;;;21.74;36.25
51053;BME280;37093;37.716;-122.060;2023-05-14T10:43:26;99097.36;;;21.71;36.36
51053;BME280;37093;37.716;-122.060;2023-05-14T10:45:55;99096.49;;;21.60;36.37
51053;BME280;37093;37.716;-122.060;2023-05-14T10:48:24;99096.56;;;21.56;36.60
51053;BME280;37093;37.716;-122.060;2023-05-14T10:50:53;99098.60;;;21.51;36.63
51053;BME280;37093;37.716;-122.060;2023-05-14T10:53:32;99101.68;;;21.51;36.92
51053;BME280;37093;37.716;-122.060;2023-05-14T10:56:05;99101.06;;;21.41;37.05
51053;BME280;37093;37.716;-122.060;2023-05-14T10:58:36;99100.55;;;21.41;36.89
51053;BME280;37093;37.716;-122.060;2023-05-14T11:01:05;99099.65;;;21.34;37.16
51053;BME280;37093;37.716;-122.060;2023-05-14T11:03:39;99098.75;;;21.24;37.60
51053;BME280;37093;37.716;-122.060;2023-05-14T11:06:08;99094.35;;;21.38;37.56
51053;BME280;37093;37.716;-122.060;2023-05-14T11:08:37;99095.84;;;21.35;37.49
51053;BME280;37093;37.716;-122.060;2023-05-14T11:11:05;99094.29;;;21.29;37.85
51053;BME280;37093;37.716;-122.060;2023-05-14T11:13:34;99095.19;;;21.08;37.77
51053;BME280;37093;37.716;-122.060;2023-05-14T11:16:03;99093.74;;;21.54;38.49
51053;BME280;37093;37.716;-122.060;2023-05-14T11:18:33;99094.51;;;21.54;38.43
51053;BME280;37093;37.716;-122.060;2023-05-14T11:21:02;99096.39;;;21.22;38.48
51053;BME280;37093;37.716;-122.060;2023-05-14T11:23:30;99096.90;;;21.00;38.66
51053;BME280;37093;37.716;-122.060;2023-05-14T11:25:58;99097.79;;;20.95;38.64
51053;BME280;37093;37.716;-122.060;2023-05-14T11:28:27;99102.01;;;21.17;38.70
51053;BME280;37093;37.716;-122.060;2023-05-14T11:30:56;99104.96;;;21.11;39.22
51053;BME280;37093;37.716;-122.060;2023-05-14T11:33:27;99108.27;;;21.39;39.41
51053;BME280;37093;37.716;-122.060;2023-05-14T11:35:55;99110.52;;;21.02;40.14
51053;BME280;37093;37.716;-122.060;2023-05-14T11:38:24;99109.61;;;20.96;39.56
51053;BME280;37093;37.716;-122.060;2023-05-14T11:40:52;99110.36;;;21.15;39.87
51053;BME280;37093;37.716;-122.060;2023-05-14T11:43:21;99112.52;;;20.83;39.72
51053;BME280;37093;37.716;-122.060;2023-05-14T11:45:50;99112.19;;;20.82;39.59
51053;BME280;37093;37.716;-122.060;2023-05-14T11:48:18;99110.83;;;21.01;39.92
51053;BME280;37093;37.716;-122.060;2023-05-14T11:50:48;99115.36;;;20.73;39.71
51053;BME280;37093;37.716;-122.060;2023-05-14T11:53:17;99113.62;;;20.67;40.12
51053;BME280;37093;37.716;-122.060;2023-05-14T11:55:46;99114.83;;;20.67;40.11
51053;BME280;37093;37.716;-122.060;2023-05-14T11:58:14;99115.21;;;20.65;40.23
51053;BME280;37093;37.716;-122.060;2023-05-14T12:00:44;99115.87;;;20.93;40.29
51053;BME280;37093;37.716;-122.060;2023-05-14T12:03:13;99115.19;;;20.62;40.34
51053;BME280;37093;37.716;-122.060;2023-05-14T12:05:54;99114.70;;;20.84;40.47
51053;BME280;37093;37.716;-122.060;2023-05-14T12:08:26;99114.48;;;20.78;40.81
51053;BME280;37093;37.716;-122.060;2023-05-14T12:10:57;99116.89;;;20.77;41.01
51053;BME280;37093;37.716;-122.060;2023-05-14T12:13:27;99120.09;;;20.70;40.96
51053;BME280;37093;37.716;-122.060;2023-05-14T12:15:57;99121.59;;;20.64;41.36
51053;BME280;37093;37.716;-122.060;2023-05-14T12:18:26;99125.97;;;20.59;41.26
51053;BME280;37093;37.716;-122.060;2023-05-14T12:20:54;99129.47;;;20.33;40.86
51053;BME280;37093;37.716;-122.060;2023-05-14T12:23:25;99129.43;;;20.30;41.13
51053;BME280;37093;37.716;-122.060;2023-05-14T12:25:54;99127.30;;;20.55;41.04
51053;BME280;37093;37.716;-122.060;2023-05-14T12:28:23;99125.63;;;20.46;41.52
51053;BME280;37093;37.716;-122.060;2023-05-14T12:30:56;99122.98;;;20.41;41.59
51053;BME280;37093;37.716;-122.060;2023-05-14T12:33:25;99122.46;;;20.33;41.83
51053;BME280;37093;37.716;-122.060;2023-05-14T12:35:54;99126.99;;;19.94;42.51
51053;BME280;37093;37.716;-122.060;2023-05-14T12:38:22;99128.59;;;20.14;42.20
51053;BME280;37093;37.716;-122.060;2023-05-14T12:40:50;99132.27;;;19.87;42.06